Soleil Weather Down

Nearby METAR Reports

 

KCNI - Canton/Cherokee, Georgia, USA
Distance from station: ENE 6mi, 10km
Updated: Sat, 08-May-2021 8:35pm EDT
Partly cloudy
Partly cloudy
 Wind from calm
Wind: Calm
Temperature: 64°F , 18°C
Dew Point: 45°F , 7°C
Humidity: 49%
Barometer: 30.08 inHg , 1018.6 hPa
Clouds: Partly cloudy
Visibility: 10 miles , 16 km
Cloud details: Partly cloudy 8500 ft
2021/05/09 00:35 KCNI 090035Z AUTO 00000KT 10SM SCT085 18/07 A3008 RMK AO2
KRYY - Marietta Mccolum, Georgia, USA
Distance from station: SSW 18mi, 29km
Updated: Sat, 08-May-2021 7:50pm EDT
Clear
Clear
 Wind from WNW
Wind: WNW 5 mph , 7 km/h
Temperature: 70°F , 21°C
Dew Point: 45°F , 7°C
Humidity: 40%
Barometer: 30.08 inHg , 1018.6 hPa
Clouds: Clear
Visibility: 10 miles , 16 km
2021/05/08 23:50 KRYY 082350Z 30004KT 10SM CLR 21/07 A3008 RMK AO2 SLP906 T02110067 10233 20206 58002 $
KVPC - Cartersville, Georgia, USA
Distance from station: WSW 22mi, 35km
Updated: Sat, 08-May-2021 8:35pm EDT
Clear
Clear
 Wind from calm
Wind: Calm
Temperature: 68°F , 20°C
Dew Point: 50°F , 10°C
Humidity: 53%
Barometer: 30.06 inHg , 1017.9 hPa
Clouds: Clear
Visibility: 10 miles , 16 km
2021/05/09 00:35 KVPC 090035Z AUTO 00000KT 10SM CLR 20/10 A3006 RMK AO2
 
KMGE - Dobbins Afb/Mari, Georgia, USA
Distance from station: S 24mi, 39km
Updated: Sat, 08-May-2021 7:56pm EDT
Few Clouds
Few Clouds
 Wind from WNW
Wind: WNW 6 mph , 9 km/h
Temperature: 70°F , 21°C
Dew Point: 43°F , 6°C
Humidity: 38%
Barometer: 30.06 inHg , 1017.9 hPa
Clouds: Few Clouds
Visibility: 10 miles , 16 km
Cloud details: Few Clouds 7000 ft
Few Clouds 9000 ft
Few Clouds 25000 ft
2021/05/08 23:56 KMGE 082356Z 29005KT 10SM FEW070 FEW090 FEW250 21/06 A3006 RMK AO2A SLP177 T02070059 10240 20207 58001 $
KPDK - Peachtree/Dekalb, Georgia, USA
Distance from station: SSE 29mi, 47km
Updated: Sat, 08-May-2021 7:53pm EDT
Clear
Clear
 Wind from WNW
Wind: WNW 5 mph , 7 km/h
Temperature: 70°F , 21°C
Dew Point: 43°F , 6°C
Humidity: 38%
Barometer: 30.06 inHg , 1017.9 hPa
Clouds: Clear
Visibility: 10 miles , 16 km
2021/05/08 23:53 KPDK 082353Z 29004KT 10SM CLR 21/06 A3006 RMK AO2 SLP176 T02110061 10233 20211 58002
KFTY - Atlanta/Fulton, Georgia, USA
Distance from station: S 34mi, 54km
Updated: Sat, 08-May-2021 7:53pm EDT
Clear
Clear
 Wind from calm
Wind: Calm
Temperature: 72°F , 22°C
Dew Point: 45°F , 7°C
Humidity: 38%
Barometer: 30.06 inHg , 1017.9 hPa
Clouds: Clear
Visibility: 10 miles , 16 km
2021/05/08 23:53 KFTY 082353Z 00000KT 10SM CLR 22/07 A3006 RMK AO2 SLP174 T02170067 10244 20217 55001
 
KPUJ - Atlanta/Paulding, Georgia, USA
Distance from station: SW 34mi, 55km
Updated: Sat, 08-May-2021 8:35pm EDT
Clear
Clear
 Wind from calm
Wind: Calm
Temperature: 63°F , 17°C
Dew Point: 43°F , 6°C
Humidity: 49%
Barometer: 30.07 inHg , 1018.3 hPa
Clouds: Clear
Visibility: 10 miles , 16 km
2021/05/09 00:35 KPUJ 090035Z AUTO 00000KT 10SM CLR 17/06 A3007 RMK AO2
KDNN - Dalton, Georgia, USA
Distance from station: NW 37mi, 59km
Updated: Sat, 08-May-2021 8:35pm EDT
Clear
Clear
 Wind from calm
Wind: Calm
Temperature: 63°F , 17°C
Dew Point: 52°F , 11°C
Humidity: 68%
Barometer: 30.07 inHg , 1018.3 hPa
Clouds: Clear
Visibility: 10 miles , 16 km
2021/05/09 00:35 KDNN 090035Z AUTO 00000KT 10SM CLR 17/11 A3007 RMK AO2
KLZU - Lawrenceville, Georgia, USA
Distance from station: ESE 37mi, 59km
Updated: Sat, 08-May-2021 7:56pm EDT
Overcast
Overcast
 Wind from calm
Wind: Calm
Temperature: 68°F , 20°C
Dew Point: 46°F , 8°C
Humidity: 46%
Barometer: 30.07 inHg , 1018.3 hPa
Clouds: Overcast
Visibility: 10 miles , 16 km
Cloud details: Overcast 10000 ft
2021/05/08 23:56 KLZU 082356Z 00000KT 10SM OVC100 20/08 A3007 RMK AO2 SLP190 P0001 60008 T02000083 10233 20200 56001
 
KRMG - Rome, Georgia, USA
Distance from station: W 38mi, 61km
Updated: Sat, 08-May-2021 7:53pm EDT
Clear
Clear
 Wind from calm
Wind: Calm
Temperature: 72°F , 22°C
Dew Point: 45°F , 7°C
Humidity: 38%
Barometer: 30.04 inHg , 1017.3 hPa
Clouds: Clear
Visibility: 10 miles , 16 km
2021/05/08 23:53 KRMG 082353Z AUTO 00000KT 10SM CLR 22/07 A3004 RMK AO2 SLP166 T02220072 10244 20211 58007
KGVL - Gainesville, Georgia, USA
Distance from station: E 39mi, 62km
Updated: Sat, 08-May-2021 7:53pm EDT
Overcast
Overcast
 Wind from NNW
Wind: NNW 7 mph , 11 km/h
Temperature: 68°F , 20°C
Dew Point: 43°F , 6°C
Humidity: 40%
Barometer: 30.09 inHg , 1019 hPa
Clouds: Overcast
Visibility: 10 miles , 16 km
Cloud details: Overcast 7500 ft
2021/05/08 23:53 KGVL 082353Z AUTO 33006KT 10SM OVC075 20/06 A3009 RMK AO2 SLP180 T02000056 10222 20200 50001
KATL - Atlanta, Georgia, USA
Distance from station: S 44mi, 71km
Updated: Sat, 08-May-2021 7:52pm EDT
Few Clouds
Few Clouds
 Wind from WNW
Wind: WNW 3 mph , 6 km/h
Temperature: 72°F , 22°C
Dew Point: 43°F , 6°C
Humidity: 36%
Barometer: 30.07 inHg , 1018.3 hPa
Clouds: Few Clouds
Visibility: 10 miles , 16 km
Cloud details: Few Clouds 8000 ft
Few Clouds 10000 ft
Few Clouds 25000 ft
2021/05/08 23:52 KATL 082352Z 30003KT 10SM FEW080 FEW100 FEW250 22/06 A3007 RMK AO2 SLP176 T02220056 10250 20222 58001